Impacts TAF Board
For situational awareness. Not to be used for flight planning purposes.
IDs:

KBCE - Bryce Canyon Arpt, UT, US

Issued at 0538 UTC 30 Oct 2020
Updated at 0823 UTC 30 Oct 2020
Potential Impact None Slight Moderate High
Time<<31/09Z 31/10Z 31/11Z 31/12Z 31/13Z 31/14Z 31/15Z 31/16Z 31/17Z 31/18Z 31/19Z 31/20Z 31/21Z
Type
VIS
CIG
Cover
FltCat
WX
WDir
WSpd
WGst
Raw TAF
KBCE 300538Z 3006/3106 26007KT P6SM SKC
  FM301600 13006KT P6SM SKC
  FM310000 27006KT P6SM SKC


METAR Board
Radar Display
Forecast Discussion
For situational awareness. Not to be used for flight planning purposes.